Time;durP1;ratioP1;P1;durP2;ratioP2;P2;SDS_P1;SDS_P2;PMS_P1;PMS_P2;Temp;Humidity;BMP_temperature;BMP_pressure;BME280_temperature;BME280_humidity;BME280_pressure;Samples;Min_cycle;Max_cycle;Signal;HPM_P1;HPM_P2
2022/10/12 00:00:06;;;;;;;;;;;;;;;8.37;100.00;99136.30;1717307;82;24576;-90
2022/10/12 00:02:34;;;;;;;;;;;;;;;8.50;100.00;99141.76;1729177;80;20199;-88
2022/10/12 00:04:59;;;;;;;;;;;;;;;8.51;100.00;99138.70;1716992;80;20854;-84
2022/10/12 00:07:25;;;;;;;;;;;;;;;8.46;100.00;99140.20;1731132;81;20443;-89
2022/10/12 00:09:51;;;;;;;;;;;;;;;8.42;100.00;99144.34;1722652;81;21090;-88
2022/10/12 00:12:17;;;;;;;;;;;;;;;8.42;100.00;99137.83;1715903;79;20217;-88
2022/10/12 00:14:44;;;;;;;;;;;;;;;8.44;100.00;99137.30;1721231;80;20917;-86
2022/10/12 00:17:09;;;;;;;;;;;;;;;8.37;100.00;99133.69;1720975;81;24866;-84
2022/10/12 00:19:35;;;;;;;;;;;;;;;8.15;100.00;99130.88;1683250;82;20219;-86
2022/10/12 00:22:01;;;;;;;;;;;;;;;8.01;100.00;99134.63;1676986;83;21054;-84
2022/10/12 00:24:31;;;;;;;;;;;;;;;8.00;100.00;99133.78;1690833;82;25340;-84
2022/10/12 00:26:57;;;;;;;;;;;;;;;8.14;100.00;99129.18;1690561;81;20520;-83
2022/10/12 00:29:22;;;;;;;;;;;;;;;8.08;100.00;99129.48;1687669;82;20747;-88
2022/10/12 00:31:48;;;;;;;;;;;;;;;7.99;100.00;99126.88;1732748;81;20233;-86
2022/10/12 00:34:15;;;;;;;;;;;;;;;7.96;100.00;99124.42;1711251;80;26064;-88
2022/10/12 00:36:42;;;;;;;;;;;;;;;8.08;100.00;99119.89;1710313;81;24466;-83
2022/10/12 00:39:08;;;;;;;;;;;;;;;8.16;100.00;99119.08;1695162;82;20200;-86
2022/10/12 00:41:36;;;;;;;;;;;;;;;8.23;100.00;99128.30;1670294;82;25305;-89
2022/10/12 00:44:02;;;;;;;;;;;;;;;8.29;100.00;99124.55;1688160;82;22096;-88
2022/10/12 00:46:38;;;;;;;;;;;;;;;8.29;100.00;99125.84;1676690;83;21134;-90
2022/10/12 00:49:12;;;;;;;;;;;;;;;8.13;100.00;99127.03;1695084;82;24632;-89
2022/10/12 00:51:40;;;;;;;;;;;;;;;7.96;100.00;99123.94;1655302;84;20254;-90
2022/10/12 00:54:07;;;;;;;;;;;;;;;7.81;100.00;99120.77;1688856;82;24886;-86
2022/10/12 00:56:35;;;;;;;;;;;;;;;7.69;100.00;99124.44;1688963;82;22014;-88
2022/10/12 00:59:03;;;;;;;;;;;;;;;7.59;100.00;99118.79;1685677;83;26064;-88
2022/10/12 01:01:30;;;;;;;;;;;;;;;7.58;100.00;99123.64;1690098;82;24455;-89
2022/10/12 01:03:56;;;;;;;;;;;;;;;7.72;100.00;99122.98;1687912;82;20261;-91
2022/10/12 01:06:22;;;;;;;;;;;;;;;7.74;100.00;99115.94;1688602;82;20303;-87
2022/10/12 01:09:03;;;;;;;;;;;;;;;7.80;100.00;99109.14;1682291;83;20348;-91
2022/10/12 01:11:35;;;;;;;;;;;;;;;7.91;100.00;99114.20;1686795;82;26095;-88
2022/10/12 01:14:01;;;;;;;;;;;;;;;8.05;100.00;99113.55;1678124;82;25354;-83
2022/10/12 01:16:47;;;;;;;;;;;;;;;8.11;100.00;99109.80;1684593;83;20201;-88
2022/10/12 01:19:32;;;;;;;;;;;;;;;8.14;100.00;99106.56;1680269;82;24821;-88
2022/10/12 01:21:59;;;;;;;;;;;;;;;8.25;100.00;99104.73;1665610;83;21949;-90
2022/10/12 01:24:39;;;;;;;;;;;;;;;8.32;100.00;99107.00;1691152;82;25877;-84
2022/10/12 01:27:13;;;;;;;;;;;;;;;8.27;100.00;99110.72;1687725;82;24543;-90
2022/10/12 01:29:57;;;;;;;;;;;;;;;8.17;100.00;99114.71;1692075;82;20278;-88
2022/10/12 01:32:25;;;;;;;;;;;;;;;8.08;100.00;99113.38;1694471;83;24983;-83
2022/10/12 01:34:53;;;;;;;;;;;;;;;8.05;100.00;99112.23;1688471;82;22047;-85
2022/10/12 01:37:21;;;;;;;;;;;;;;;8.07;100.00;99123.91;1677688;82;26172;-85
2022/10/12 01:39:55;;;;;;;;;;;;;;;8.04;100.00;99127.48;1695633;81;25212;-83
2022/10/12 01:45:30;;;;;;;;;;;;;;;7.93;100.00;99131.07;1664979;83;20894;-90
2022/10/12 01:47:56;;;;;;;;;;;;;;;7.82;100.00;99128.13;1669279;83;20268;-85
2022/10/12 01:50:24;;;;;;;;;;;;;;;7.80;100.00;99126.89;1677807;83;26009;-87
2022/10/12 01:52:59;;;;;;;;;;;;;;;7.78;100.00;99126.59;1663525;84;25259;-89
2022/10/12 01:55:43;;;;;;;;;;;;;;;7.72;100.00;99119.06;1678287;84;20221;-88
2022/10/12 01:58:11;;;;;;;;;;;;;;;7.76;100.00;99125.81;1683673;83;24859;-85
2022/10/12 02:00:45;;;;;;;;;;;;;;;7.78;100.00;99135.27;1682554;82;21834;-83
2022/10/12 02:03:16;;;;;;;;;;;;;;;7.75;100.00;99136.69;1671380;83;26181;-85
2022/10/12 02:06:02;;;;;;;;;;;;;;;7.76;100.00;99138.84;1664288;83;24470;-87
2022/10/12 02:08:39;;;;;;;;;;;;;;;7.67;100.00;99136.22;1690171;83;20219;-87
2022/10/12 02:11:09;;;;;;;;;;;;;;;7.46;100.00;99139.37;1663184;83;25585;-83
2022/10/12 02:13:37;;;;;;;;;;;;;;;7.36;100.00;99139.41;1651074;84;21967;-85
2022/10/12 02:16:05;;;;;;;;;;;;;;;7.41;100.00;99131.38;1680986;81;26273;-85
2022/10/12 02:18:34;;;;;;;;;;;;;;;7.43;100.00;99136.05;1688245;82;25314;-89
2022/10/12 02:21:01;;;;;;;;;;;;;;;7.32;100.00;99137.84;1674688;82;20182;-89
2022/10/12 02:23:27;;;;;;;;;;;;;;;7.21;100.00;99132.27;1688147;83;24809;-87
2022/10/12 02:25:55;;;;;;;;;;;;;;;7.09;100.00;99133.66;1667653;84;22067;-87
2022/10/12 02:28:22;;;;;;;;;;;;;;;7.09;100.00;99129.75;1677852;83;26019;-85
2022/10/12 02:30:50;;;;;;;;;;;;;;;7.30;100.00;99134.93;1696208;82;24495;-84
2022/10/12 02:33:26;;;;;;;;;;;;;;;7.47;100.00;99137.13;1675483;84;20276;-89
2022/10/12 02:36:11;;;;;;;;;;;;;;;7.48;100.00;99136.22;1694688;82;24770;-90
2022/10/12 02:38:39;;;;;;;;;;;;;;;7.50;100.00;99136.16;1677594;82;22138;-88
2022/10/12 02:41:15;;;;;;;;;;;;;;;7.49;100.00;99135.31;1719575;80;26058;-90
2022/10/12 02:43:43;;;;;;;;;;;;;;;7.57;100.00;99138.88;1722304;80;24497;-83
2022/10/12 02:46:10;;;;;;;;;;;;;;;7.62;100.00;99138.20;1717769;81;20273;-83
2022/10/12 02:48:44;;;;;;;;;;;;;;;7.60;100.00;99139.17;1719970;81;24850;-90
2022/10/12 02:51:11;;;;;;;;;;;;;;;7.58;100.00;99137.97;1722801;80;22863;-88
2022/10/12 02:53:37;;;;;;;;;;;;;;;7.67;100.00;99128.86;1683384;82;26642;-85
2022/10/12 02:56:14;;;;;;;;;;;;;;;7.74;100.00;99131.58;1686559;82;24430;-90
2022/10/12 02:58:41;;;;;;;;;;;;;;;7.77;100.00;99133.56;1658691;84;20234;-90
2022/10/12 03:01:07;;;;;;;;;;;;;;;7.80;100.00;99131.29;1679643;83;25322;-88
2022/10/12 03:03:36;;;;;;;;;;;;;;;7.81;100.00;99131.19;1687989;83;22629;-87
2022/10/12 03:06:04;;;;;;;;;;;;;;;7.83;100.00;99130.67;1659863;83;26172;-90
2022/10/12 03:08:30;;;;;;;;;;;;;;;7.80;100.00;99133.89;1688420;82;24564;-87
2022/10/12 03:11:08;;;;;;;;;;;;;;;7.56;100.00;99131.97;1676611;83;20756;-85
2022/10/12 03:13:34;;;;;;;;;;;;;;;7.26;100.00;99124.25;1693937;81;25020;-83
2022/10/12 03:16:03;;;;;;;;;;;;;;;7.03;100.00;99122.25;1677530;82;22201;-82
2022/10/12 03:18:33;;;;;;;;;;;;;;;6.87;100.00;99123.84;1686311;83;26239;-87
2022/10/12 03:20:59;;;;;;;;;;;;;;;6.72;100.00;99125.78;1659000;83;24577;-83
2022/10/12 03:23:27;;;;;;;;;;;;;;;6.55;100.00;99129.55;1690037;83;20209;-89
2022/10/12 03:25:55;;;;;;;;;;;;;;;6.40;100.00;99130.20;1692896;81;20491;-85
2022/10/12 03:28:21;;;;;;;;;;;;;;;6.34;100.00;99133.05;1717194;80;20242;-85
2022/10/12 03:30:46;;;;;;;;;;;;;;;6.24;100.00;99133.45;1731207;80;21097;-85
2022/10/12 03:33:15;;;;;;;;;;;;;;;6.20;100.00;99127.99;1719259;80;20787;-85
2022/10/12 03:35:50;;;;;;;;;;;;;;;6.36;100.00;99133.84;1718010;80;20421;-88
2022/10/12 03:38:16;;;;;;;;;;;;;;;6.59;100.00;99132.44;1711123;81;24283;-90
2022/10/12 03:40:43;;;;;;;;;;;;;;;6.78;100.00;99133.32;1718004;80;22801;-85
2022/10/12 03:43:08;;;;;;;;;;;;;;;6.89;100.00;99129.80;1676706;82;21798;-84
2022/10/12 03:45:34;;;;;;;;;;;;;;;6.99;100.00;99134.14;1686273;82;20331;-87
2022/10/12 03:48:00;;;;;;;;;;;;;;;6.99;100.00;99134.98;1694173;82;20268;-85
2022/10/12 03:50:26;;;;;;;;;;;;;;;6.95;100.00;99137.80;1687603;82;20275;-86
2022/10/12 03:52:52;;;;;;;;;;;;;;;6.93;100.00;99133.95;1672662;83;20762;-84
2022/10/12 03:55:18;;;;;;;;;;;;;;;6.94;100.00;99130.89;1692524;82;21007;-85
2022/10/12 03:57:44;;;;;;;;;;;;;;;6.93;100.00;99135.25;1686995;82;20257;-86
2022/10/12 04:00:11;;;;;;;;;;;;;;;6.96;100.00;99136.44;1695414;82;20745;-87
2022/10/12 04:02:38;;;;;;;;;;;;;;;6.98;100.00;99140.28;1684703;82;25630;-83
2022/10/12 04:05:04;;;;;;;;;;;;;;;6.98;100.00;99140.28;1689768;83;22023;-87
2022/10/12 04:07:30;;;;;;;;;;;;;;;6.97;100.00;99142.03;1693248;83;26151;-88
2022/10/12 04:09:56;;;;;;;;;;;;;;;6.98;100.00;99143.70;1694720;83;20211;-83
2022/10/12 04:12:22;;;;;;;;;;;;;;;6.99;100.00;99139.34;1671862;83;20262;-84
2022/10/12 04:14:47;;;;;;;;;;;;;;;6.92;100.00;99134.89;1684032;82;20360;-87
2022/10/12 04:17:14;;;;;;;;;;;;;;;6.78;100.00;99139.83;1687433;83;20225;-89
2022/10/12 04:19:40;;;;;;;;;;;;;;;6.78;100.00;99141.58;1684187;82;25953;-88
2022/10/12 04:22:06;;;;;;;;;;;;;;;6.77;100.00;99146.38;1664466;84;24364;-87
2022/10/12 04:24:33;;;;;;;;;;;;;;;6.71;100.00;99140.98;1697754;82;20298;-83
2022/10/12 04:27:02;;;;;;;;;;;;;;;6.65;100.00;99143.88;1692132;83;24999;-88
2022/10/12 04:29:28;;;;;;;;;;;;;;;6.73;100.00;99146.98;1723468;80;22105;-84
2022/10/12 04:31:54;;;;;;;;;;;;;;;6.81;100.00;99146.22;1713353;81;21064;-87
2022/10/12 04:34:23;;;;;;;;;;;;;;;6.85;100.00;99144.31;1724032;80;24446;-82
2022/10/12 04:36:49;;;;;;;;;;;;;;;6.88;100.00;99142.86;1724385;80;20363;-88
2022/10/12 04:39:15;;;;;;;;;;;;;;;6.89;100.00;99148.47;1717695;80;20241;-88
2022/10/12 04:41:41;;;;;;;;;;;;;;;6.75;100.00;99146.92;1728143;80;20281;-88
2022/10/12 04:44:34;;;;;;;;;;;;;;;6.74;100.00;99149.98;1708372;81;21684;-89
2022/10/12 04:47:00;;;;;;;;;;;;;;;6.70;100.00;99147.13;1720441;80;24524;-89
2022/10/12 04:49:33;;;;;;;;;;;;;;;6.75;100.00;99148.23;1694258;83;20208;-89
2022/10/12 04:52:06;;;;;;;;;;;;;;;6.81;100.00;99147.97;1692228;82;24243;-88
2022/10/12 04:54:32;;;;;;;;;;;;;;;6.86;100.00;99146.01;1669216;82;22474;-87
2022/10/12 04:57:09;;;;;;;;;;;;;;;6.72;100.00;99144.84;1681245;82;26095;-90
2022/10/12 04:59:35;;;;;;;;;;;;;;;6.51;100.00;99148.35;1682315;82;24641;-89
2022/10/12 05:02:04;;;;;;;;;;;;;;;6.34;100.00;99149.50;1687052;83;20942;-84
2022/10/12 05:04:30;;;;;;;;;;;;;;;6.13;100.00;99137.39;1696721;83;24774;-90
2022/10/12 05:06:56;;;;;;;;;;;;;;;6.08;100.00;99151.02;1698957;82;22045;-85
2022/10/12 05:09:24;;;;;;;;;;;;;;;6.03;100.00;99159.01;1693960;82;20998;-87
2022/10/12 05:11:50;;;;;;;;;;;;;;;6.09;100.00;99156.17;1685821;82;24263;-85
2022/10/12 05:14:22;;;;;;;;;;;;;;;6.16;100.00;99155.02;1673518;83;20317;-87
2022/10/12 05:16:55;;;;;;;;;;;;;;;6.26;100.00;99156.33;1683385;82;24784;-82
2022/10/12 05:19:21;;;;;;;;;;;;;;;6.34;100.00;99156.45;1681562;82;22064;-87
2022/10/12 05:21:47;;;;;;;;;;;;;;;6.37;100.00;99162.39;1696083;82;21009;-87
2022/10/12 05:24:13;;;;;;;;;;;;;;;6.37;100.00;99164.14;1682758;82;24589;-88
2022/10/12 05:26:39;;;;;;;;;;;;;;;6.36;100.00;99164.59;1678355;82;20260;-83
2022/10/12 05:29:04;;;;;;;;;;;;;;;6.38;100.00;99161.94;1689626;82;21377;-83
2022/10/12 05:31:32;;;;;;;;;;;;;;;6.41;100.00;99168.30;1697374;82;20512;-87
2022/10/12 05:34:01;;;;;;;;;;;;;;;6.45;100.00;99171.16;1690280;82;26053;-83
2022/10/12 05:36:27;;;;;;;;;;;;;;;6.55;100.00;99172.45;1686677;82;25286;-83
2022/10/12 05:38:53;;;;;;;;;;;;;;;6.58;100.00;99169.75;1683727;81;20252;-88
2022/10/12 05:41:19;;;;;;;;;;;;;;;6.71;100.00;99161.80;1683095;82;20332;-85
2022/10/12 05:43:45;;;;;;;;;;;;;;;6.82;100.00;99166.58;1691898;83;20821;-85
2022/10/12 05:46:10;;;;;;;;;;;;;;;6.70;100.00;99167.48;1677184;81;20494;-83
2022/10/12 05:48:36;;;;;;;;;;;;;;;6.54;100.00;99165.59;1671748;83;20234;-85
2022/10/12 05:51:02;;;;;;;;;;;;;;;6.42;100.00;99166.09;1689327;82;20277;-85
2022/10/12 05:53:28;;;;;;;;;;;;;;;6.38;100.00;99167.14;1669828;83;25715;-85
2022/10/12 05:56:00;;;;;;;;;;;;;;;6.39;100.00;99174.00;1664806;83;20260;-88
2022/10/12 05:58:27;;;;;;;;;;;;;;;6.34;100.00;99172.89;1696935;82;26046;-82
2022/10/12 06:00:53;;;;;;;;;;;;;;;6.48;100.00;99171.89;1697761;82;24598;-83
2022/10/12 06:03:19;;;;;;;;;;;;;;;6.70;100.00;99165.34;1688294;83;20394;-83
2022/10/12 06:05:45;;;;;;;;;;;;;;;6.88;100.00;99167.12;1662590;84;20363;-83
2022/10/12 06:08:14;;;;;;;;;;;;;;;6.99;100.00;99173.16;1680444;83;21980;-87
2022/10/12 06:10:46;;;;;;;;;;;;;;;6.88;100.00;99172.33;1677750;83;26120;-87
2022/10/12 06:13:12;;;;;;;;;;;;;;;6.66;100.00;99173.70;1683558;82;24735;-88
2022/10/12 06:15:38;;;;;;;;;;;;;;;6.51;100.00;99165.25;1686346;82;20293;-86
2022/10/12 06:18:08;;;;;;;;;;;;;;;6.46;100.00;99163.30;1690791;82;24897;-85
2022/10/12 06:20:33;;;;;;;;;;;;;;;6.46;100.00;99165.90;1683582;82;22328;-85
2022/10/12 06:23:01;;;;;;;;;;;;;;;6.53;100.00;99169.09;1694111;82;21163;-88
2022/10/12 06:25:31;;;;;;;;;;;;;;;6.69;100.00;99180.55;1682480;84;20406;-89
2022/10/12 06:27:57;;;;;;;;;;;;;;;6.87;100.00;99180.23;1686459;82;20330;-86
2022/10/12 06:30:23;;;;;;;;;;;;;;;6.98;100.00;99176.22;1668967;84;20276;-89
2022/10/12 06:32:58;;;;;;;;;;;;;;;7.05;100.00;99175.05;1683349;83;20222;-88
2022/10/12 06:35:23;;;;;;;;;;;;;;;7.12;100.00;99182.14;1678923;83;26202;-84
2022/10/12 06:37:52;;;;;;;;;;;;;;;7.22;100.00;99179.97;1695789;82;20399;-86
2022/10/12 06:40:19;;;;;;;;;;;;;;;7.42;100.00;99177.31;1686453;82;20548;-86
2022/10/12 06:43:01;;;;;;;;;;;;;;;7.56;100.00;99181.00;1680581;82;24803;-87
2022/10/12 06:45:26;;;;;;;;;;;;;;;7.68;100.00;99176.99;1679906;82;21853;-86
2022/10/12 06:47:53;;;;;;;;;;;;;;;7.76;100.00;99186.59;1698641;82;26667;-88
2022/10/12 06:50:19;;;;;;;;;;;;;;;7.81;100.00;99183.77;1721612;80;25159;-88
2022/10/12 06:52:45;;;;;;;;;;;;;;;7.82;100.00;99182.84;1727042;81;20473;-86
2022/10/12 06:55:11;;;;;;;;;;;;;;;7.92;100.00;99184.95;1678744;82;24767;-86
2022/10/12 06:57:37;;;;;;;;;;;;;;;7.98;100.00;99182.06;1701693;82;20243;-84
2022/10/12 07:00:05;;;;;;;;;;;;;;;7.99;100.00;99191.58;1683913;82;26067;-83
2022/10/12 07:02:31;;;;;;;;;;;;;;;8.02;100.00;99192.36;1685158;82;21138;-84
2022/10/12 07:04:57;;;;;;;;;;;;;;;8.06;100.00;99188.22;1698362;82;20443;-88
2022/10/12 07:07:30;;;;;;;;;;;;;;;8.11;100.00;99186.70;1660734;83;20755;-88
2022/10/12 07:09:56;;;;;;;;;;;;;;;8.16;100.00;99187.32;1675366;83;21972;-89
2022/10/12 07:12:22;;;;;;;;;;;;;;;8.25;100.00;99184.26;1676751;82;20988;-88
2022/10/12 07:14:48;;;;;;;;;;;;;;;8.28;100.00;99190.64;1696257;82;20254;-85
2022/10/12 07:17:14;;;;;;;;;;;;;;;8.27;100.00;99192.86;1690050;82;20497;-85
2022/10/12 07:19:44;;;;;;;;;;;;;;;8.25;100.00;99189.47;1655011;82;20416;-85
2022/10/12 07:22:10;;;;;;;;;;;;;;;8.21;100.00;99188.79;1667876;84;22112;-83
2022/10/12 07:24:36;;;;;;;;;;;;;;;8.08;100.00;99186.37;1685833;83;21582;-83
2022/10/12 07:27:07;;;;;;;;;;;;;;;8.01;100.00;99186.75;1651031;84;20249;-86
2022/10/12 07:29:33;;;;;;;;;;;;;;;8.10;100.00;99188.45;1678626;82;20592;-85
2022/10/12 07:32:01;;;;;;;;;;;;;;;8.26;100.00;99193.77;1664015;82;20192;-85
2022/10/12 07:34:35;;;;;;;;;;;;;;;8.36;100.00;99193.74;1702468;82;22127;-90
2022/10/12 07:37:02;;;;;;;;;;;;;;;8.40;100.00;99190.06;1674220;83;26090;-90
2022/10/12 07:39:27;;;;;;;;;;;;;;;8.44;100.00;99191.62;1687180;83;24468;-84
2022/10/12 07:41:57;;;;;;;;;;;;;;;8.38;100.00;99193.22;1668905;84;20781;-84
2022/10/12 07:44:23;;;;;;;;;;;;;;;8.28;100.00;99193.25;1691445;81;24661;-89
2022/10/12 07:46:49;;;;;;;;;;;;;;;8.30;100.00;99192.73;1686215;83;20847;-84
2022/10/12 07:49:15;;;;;;;;;;;;;;;8.26;100.00;99190.71;1682798;82;26061;-83
2022/10/12 07:51:45;;;;;;;;;;;;;;;8.25;100.00;99189.47;1688641;82;20238;-90
2022/10/12 07:54:16;;;;;;;;;;;;;;;8.24;100.00;99183.41;1679673;83;20607;-91
2022/10/12 07:56:42;;;;;;;;;;;;;;;8.24;100.00;99188.62;1682907;83;24612;-90
2022/10/12 07:59:08;;;;;;;;;;;;;;;8.14;100.00;99183.47;1680519;83;20220;-84
2022/10/12 08:01:34;;;;;;;;;;;;;;;8.08;100.00;99182.91;1662932;83;21004;-88
2022/10/12 08:04:01;;;;;;;;;;;;;;;8.13;100.00;99184.39;1704283;82;25610;-84
2022/10/12 08:06:29;;;;;;;;;;;;;;;8.17;100.00;99182.04;1683672;82;20241;-88
2022/10/12 08:09:07;;;;;;;;;;;;;;;8.20;100.00;99178.42;1723148;81;24874;-90
2022/10/12 08:11:34;;;;;;;;;;;;;;;8.31;100.00;99180.08;1719493;80;21961;-88
2022/10/12 08:14:00;;;;;;;;;;;;;;;8.36;100.00;99180.25;1731812;80;26896;-90
2022/10/12 08:16:26;;;;;;;;;;;;;;;8.51;100.00;99178.64;1698094;83;24472;-90
2022/10/12 08:19:05;;;;;;;;;;;;;;;8.61;100.00;99185.11;1687777;82;20761;-90
2022/10/12 08:21:40;;;;;;;;;;;;;;;8.70;100.00;99185.09;1728836;79;24837;-90
2022/10/12 08:24:07;;;;;;;;;;;;;;;8.66;100.00;99187.48;1673077;82;22006;-84
2022/10/12 08:26:32;;;;;;;;;;;;;;;8.60;100.00;99178.20;1695260;82;25970;-88
2022/10/12 08:29:03;;;;;;;;;;;;;;;8.56;100.00;99181.05;1671542;82;24468;-84
2022/10/12 08:31:29;;;;;;;;;;;;;;;8.54;100.00;99181.56;1692805;81;20204;-86
2022/10/12 08:34:13;;;;;;;;;;;;;;;8.59;100.00;99174.36;1638020;85;20480;-90
2022/10/12 08:36:41;;;;;;;;;;;;;;;8.65;100.00;99178.81;1694808;82;22108;-84
2022/10/12 08:39:08;;;;;;;;;;;;;;;8.71;100.00;99178.51;1679349;82;26329;-84
2022/10/12 08:41:52;;;;;;;;;;;;;;;8.78;100.00;99177.75;1687730;82;20421;-84
2022/10/12 08:44:35;;;;;;;;;;;;;;;8.82;100.00;99181.88;1687780;82;20271;-89
2022/10/12 08:47:06;;;;;;;;;;;;;;;8.83;100.00;99176.20;1713722;81;25553;-88
2022/10/12 08:49:42;;;;;;;;;;;;;;;8.88;100.00;99175.50;1690835;81;22588;-90
2022/10/12 08:52:19;;;;;;;;;;;;;;;8.86;100.00;99174.27;1683137;83;26246;-90
2022/10/12 08:54:45;;;;;;;;;;;;;;;8.89;100.00;99164.96;1671344;82;24614;-87
2022/10/12 08:57:16;;;;;;;;;;;;;;;8.96;100.00;99168.11;1691928;82;20270;-84
2022/10/12 08:59:42;;;;;;;;;;;;;;;9.02;100.00;99167.34;1696491;82;24775;-84
2022/10/12 09:05:35;;;;;;;;;;;;;;;9.19;100.00;99176.91;1681665;83;22134;-89
2022/10/12 09:08:09;;;;;;;;;;;;;;;9.37;100.00;99166.80;1688141;82;25138;-91
2022/10/12 09:10:45;;;;;;;;;;;;;;;9.47;100.00;99159.31;1692554;81;20321;-87
2022/10/12 09:13:31;;;;;;;;;;;;;;;9.53;100.00;99174.20;1685544;83;24880;-84
2022/10/12 09:15:59;;;;;;;;;;;;;;;9.53;100.00;99168.98;1686248;82;22260;-84
2022/10/12 09:18:27;;;;;;;;;;;;;;;9.61;100.00;99177.23;1696391;81;26167;-84
2022/10/12 09:20:53;;;;;;;;;;;;;;;9.68;100.00;99179.52;1694188;82;25428;-86
2022/10/12 09:23:24;;;;;;;;;;;;;;;9.73;100.00;99174.41;1669331;83;20277;-84
2022/10/12 09:25:52;;;;;;;;;;;;;;;9.74;100.00;99170.03;1660683;82;24797;-84
2022/10/12 09:28:32;;;;;;;;;;;;;;;9.80;100.00;99171.01;1686300;81;22140;-89
2022/10/12 09:31:16;;;;;;;;;;;;;;;9.86;100.00;99167.60;1717099;81;26383;-87
2022/10/12 09:33:44;;;;;;;;;;;;;;;9.92;100.00;99166.42;1681638;82;24500;-86
2022/10/12 09:36:12;;;;;;;;;;;;;;;9.98;100.00;99164.28;1693021;82;20220;-88
2022/10/12 09:38:38;;;;;;;;;;;;;;;10.02;100.00;99167.59;1692905;82;24842;-83
2022/10/12 09:41:21;;;;;;;;;;;;;;;10.08;100.00;99168.09;1690498;82;20269;-90
2022/10/12 09:43:55;;;;;;;;;;;;;;;10.16;100.00;99160.27;1684999;82;26030;-89
2022/10/12 09:46:28;;;;;;;;;;;;;;;10.22;100.00;99165.19;1697832;81;24814;-89
2022/10/12 09:49:26;;;;;;;;;;;;;;;10.25;100.00;99161.95;1682325;83;20325;-90
2022/10/12 09:51:53;;;;;;;;;;;;;;;10.34;100.00;99161.41;1686760;82;24868;-84
2022/10/12 09:54:21;;;;;;;;;;;;;;;10.43;100.00;99156.95;1657354;84;22096;-89
2022/10/12 09:57:02;;;;;;;;;;;;;;;10.48;100.00;99158.83;1683817;83;26180;-90
2022/10/12 09:59:30;;;;;;;;;;;;;;;10.57;100.00;99165.33;1689229;82;24554;-87
2022/10/12 10:02:17;;;;;;;;;;;;;;;10.62;100.00;99154.13;1676225;82;20232;-89
2022/10/12 10:07:29;;;;;;;;;;;;;;;10.69;100.00;99158.04;1732796;80;21956;-88
2022/10/12 10:10:15;;;;;;;;;;;;;;;10.75;100.00;99152.45;1719549;81;26250;-88
2022/10/12 10:12:48;;;;;;;;;;;;;;;10.84;100.00;99157.16;1720929;81;25095;-88
2022/10/12 10:15:16;;;;;;;;;;;;;;;10.94;100.00;99152.21;1720881;81;20595;-89
2022/10/12 10:17:44;;;;;;;;;;;;;;;11.01;100.00;99148.77;1715052;80;25493;-89
2022/10/12 10:20:11;;;;;;;;;;;;;;;11.06;100.00;99147.55;1713410;80;22043;-89
2022/10/12 10:22:39;;;;;;;;;;;;;;;11.12;100.00;99147.19;1725247;80;26142;-89
2022/10/12 10:25:08;;;;;;;;;;;;;;;11.16;100.00;99146.05;1680209;82;25248;-87
2022/10/12 10:27:36;;;;;;;;;;;;;;;11.21;100.00;99146.61;1669271;83;20333;-88
2022/10/12 10:30:16;;;;;;;;;;;;;;;11.27;100.00;99144.09;1684423;82;25669;-88
2022/10/12 10:32:43;;;;;;;;;;;;;;;11.32;100.00;99145.49;1690630;81;22275;-87
2022/10/12 10:35:13;;;;;;;;;;;;;;;11.38;100.00;99145.58;1685372;82;26956;-89
2022/10/12 10:37:44;;;;;;;;;;;;;;;11.43;100.00;99143.98;1690239;82;24564;-89
2022/10/12 10:40:18;;;;;;;;;;;;;;;11.50;100.00;99146.61;1658019;84;20226;-88
2022/10/12 10:42:50;;;;;;;;;;;;;;;11.50;100.00;99138.28;1690420;82;25352;-89
2022/10/12 10:45:27;;;;;;;;;;;;;;;11.54;100.00;99145.00;1660866;83;22213;-86
2022/10/12 10:48:00;;;;;;;;;;;;;;;11.63;100.00;99142.27;1689207;82;26030;-88
2022/10/12 10:50:22;;;;;;;;;;;;;;;11.68;100.00;99137.56;1693782;81;24474;-85
2022/10/12 10:52:50;;;;;;;;;;;;;;;11.69;100.00;99135.33;1656727;84;20396;-87
2022/10/12 10:55:36;;;;;;;;;;;;;;;11.70;100.00;99139.17;1689567;82;24776;-89
2022/10/12 10:58:03;;;;;;;;;;;;;;;11.76;100.00;99132.73;1657186;83;22058;-84
2022/10/12 11:00:31;;;;;;;;;;;;;;;11.81;100.00;99131.97;1685665;83;25856;-84
2022/10/12 11:02:59;;;;;;;;;;;;;;;11.86;100.00;99125.11;1659185;84;25186;-84
2022/10/12 11:05:32;;;;;;;;;;;;;;;11.91;100.00;99125.66;1688419;82;20189;-88
2022/10/12 11:08:05;;;;;;;;;;;;;;;11.92;100.00;99124.25;1683498;82;24801;-83
2022/10/12 11:10:50;;;;;;;;;;;;;;;11.95;100.00;99117.48;1689345;82;22007;-84
2022/10/12 11:13:18;;;;;;;;;;;;;;;12.02;100.00;99120.56;1674584;83;26986;-88
2022/10/12 11:15:45;;;;;;;;;;;;;;;12.06;100.00;99113.70;1682395;83;24620;-88
2022/10/12 11:18:13;;;;;;;;;;;;;;;12.11;100.00;99114.23;1692178;82;20231;-89
2022/10/12 11:23:27;;;;;;;;;;;;;;;12.21;100.00;99111.03;1685704;82;20212;-84
2022/10/12 11:26:04;;;;;;;;;;;;;;;12.24;100.00;99109.50;1680173;83;26060;-87
2022/10/12 11:28:30;;;;;;;;;;;;;;;12.25;100.00;99104.16;1674703;83;24576;-89
2022/10/12 11:30:57;;;;;;;;;;;;;;;12.29;100.00;99107.41;1685114;83;20498;-86
2022/10/12 11:33:27;;;;;;;;;;;;;;;12.32;100.00;99105.92;1696851;82;24785;-88
2022/10/12 11:35:54;;;;;;;;;;;;;;;12.34;100.00;99096.14;1687088;82;22030;-87
2022/10/12 11:38:34;;;;;;;;;;;;;;;12.38;100.00;99102.89;1690414;82;26055;-89
2022/10/12 11:44:02;;;;;;;;;;;;;;;12.42;100.00;99097.80;1717345;80;20243;-89
2022/10/12 11:46:32;;;;;;;;;;;;;;;12.49;100.00;99095.14;1726558;80;24852;-84
2022/10/12 11:49:03;;;;;;;;;;;;;;;12.54;100.00;99097.83;1717719;80;22041;-89
2022/10/12 11:51:28;;;;;;;;;;;;;;;12.56;100.00;99093.77;1712562;81;25938;-88
2022/10/12 11:54:05;;;;;;;;;;;;;;;12.58;100.00;99094.05;1724089;80;20270;-86
2022/10/12 11:56:33;;;;;;;;;;;;;;;12.58;100.00;99099.30;1723012;80;20373;-89
2022/10/12 11:59:03;;;;;;;;;;;;;;;12.66;100.00;99096.13;1731033;80;21653;-89
2022/10/12 12:04:26;;;;;;;;;;;;;;;12.71;100.00;99096.66;1718845;80;26706;-86
2022/10/12 12:06:56;;;;;;;;;;;;;;;12.75;100.00;99090.75;1719206;80;24440;-89
2022/10/12 12:09:36;;;;;;;;;;;;;;;12.79;100.00;99096.15;1732032;80;20912;-90
2022/10/12 12:12:19;;;;;;;;;;;;;;;12.84;100.00;99084.85;1720034;80;24968;-88
2022/10/12 12:14:57;;;;;;;;;;;;;;;12.85;100.00;99080.81;1686302;82;22741;-90
2022/10/12 12:17:24;;;;;;;;;;;;;;;12.87;100.00;99080.22;1695147;82;26594;-89
2022/10/12 12:22:50;;;;;;;;;;;;;;;12.94;100.00;99075.39;1689994;82;20304;-90
2022/10/12 12:25:20;;;;;;;;;;;;;;;12.91;100.00;99075.14;1724980;81;24938;-86
2022/10/12 12:27:53;;;;;;;;;;;;;;;12.88;100.00;99074.49;1708805;81;22031;-86
2022/10/12 12:30:39;;;;;;;;;;;;;;;12.92;100.00;99078.14;1722714;80;26017;-90
2022/10/12 12:33:34;;;;;;;;;;;;;;;12.96;100.00;99074.35;1722588;81;24444;-88
2022/10/12 12:36:08;;;;;;;;;;;;;;;12.96;100.00;99070.41;1726926;80;20276;-84
2022/10/12 12:38:38;;;;;;;;;;;;;;;13.03;100.00;99076.55;1726156;81;24859;-84
2022/10/12 12:43:57;;;;;;;;;;;;;;;13.10;100.00;99072.53;1692988;82;26021;-90
2022/10/12 12:46:25;;;;;;;;;;;;;;;13.14;100.00;99069.64;1678156;83;24689;-86
2022/10/12 12:48:58;;;;;;;;;;;;;;;13.18;100.00;99068.47;1677034;82;20206;-89
2022/10/12 12:51:38;;;;;;;;;;;;;;;13.20;100.00;99069.69;1686769;83;24779;-88
2022/10/12 12:54:06;;;;;;;;;;;;;;;13.16;100.00;99061.63;1673563;83;22085;-86
2022/10/12 12:56:34;;;;;;;;;;;;;;;13.18;100.00;99067.16;1684980;83;26072;-84
2022/10/12 12:59:21;;;;;;;;;;;;;;;13.26;100.00;99066.59;1693512;82;24446;-89
2022/10/12 13:01:48;;;;;;;;;;;;;;;13.29;100.00;99055.41;1689692;81;20264;-88
2022/10/12 13:04:25;;;;;;;;;;;;;;;13.26;100.00;99057.39;1679942;82;24859;-84
2022/10/12 13:07:09;;;;;;;;;;;;;;;13.23;100.00;99054.53;1679157;82;22111;-86
2022/10/12 13:09:37;;;;;;;;;;;;;;;13.26;100.00;99056.08;1655006;83;26841;-88
2022/10/12 13:12:17;;;;;;;;;;;;;;;13.26;100.00;99049.51;1676401;83;24714;-90
2022/10/12 13:15:01;;;;;;;;;;;;;;;13.27;100.00;99045.94;1657644;84;20258;-90
2022/10/12 13:17:47;;;;;;;;;;;;;;;13.25;100.00;99046.07;1697469;82;24848;-90
2022/10/12 13:20:18;;;;;;;;;;;;;;;13.23;100.00;99044.48;1673209;83;22034;-88